sensor_id;sensor_type;location;lat;lon;timestamp;P1;durP1;ratioP1;P2;durP2;ratioP2
70247;SDS011;57641;51.416;5.506;2023-01-06T00:01:30;6.15;;;3.10;;
70247;SDS011;57641;51.416;5.506;2023-01-06T00:03:59;7.53;;;3.45;;
70247;SDS011;57641;51.416;5.506;2023-01-06T00:06:28;5.72;;;2.55;;
70247;SDS011;57641;51.416;5.506;2023-01-06T00:08:55;7.75;;;3.53;;
70247;SDS011;57641;51.416;5.506;2023-01-06T00:11:23;6.07;;;2.90;;
70247;SDS011;57641;51.416;5.506;2023-01-06T00:13:50;7.00;;;2.65;;
70247;SDS011;57641;51.416;5.506;2023-01-06T00:16:17;6.07;;;2.47;;
70247;SDS011;57641;51.416;5.506;2023-01-06T00:18:44;6.75;;;2.35;;
70247;SDS011;57641;51.416;5.506;2023-01-06T00:21:11;8.02;;;2.47;;
70247;SDS011;57641;51.416;5.506;2023-01-06T00:23:41;6.72;;;2.55;;
70247;SDS011;57641;51.416;5.506;2023-01-06T00:26:11;4.63;;;2.38;;
70247;SDS011;57641;51.416;5.506;2023-01-06T00:28:37;4.43;;;2.58;;
70247;SDS011;57641;51.416;5.506;2023-01-06T00:31:10;6.63;;;2.60;;
70247;SDS011;57641;51.416;5.506;2023-01-06T00:33:38;3.90;;;2.08;;
70247;SDS011;57641;51.416;5.506;2023-01-06T00:36:04;6.40;;;1.70;;
70247;SDS011;57641;51.416;5.506;2023-01-06T00:38:30;3.95;;;1.80;;
70247;SDS011;57641;51.416;5.506;2023-01-06T00:41:19;4.90;;;2.00;;
70247;SDS011;57641;51.416;5.506;2023-01-06T00:44:04;6.65;;;2.10;;
70247;SDS011;57641;51.416;5.506;2023-01-06T00:46:30;8.30;;;2.00;;
70247;SDS011;57641;51.416;5.506;2023-01-06T00:48:58;5.53;;;1.73;;
70247;SDS011;57641;51.416;5.506;2023-01-06T00:51:27;2.58;;;1.67;;
70247;SDS011;57641;51.416;5.506;2023-01-06T00:53:53;6.78;;;2.00;;
70247;SDS011;57641;51.416;5.506;2023-01-06T00:56:20;3.67;;;1.98;;
70247;SDS011;57641;51.416;5.506;2023-01-06T00:58:46;3.35;;;1.88;;
70247;SDS011;57641;51.416;5.506;2023-01-06T01:01:12;5.93;;;2.13;;
70247;SDS011;57641;51.416;5.506;2023-01-06T01:03:38;2.22;;;1.40;;
70247;SDS011;57641;51.416;5.506;2023-01-06T01:06:04;2.92;;;1.60;;
70247;SDS011;57641;51.416;5.506;2023-01-06T01:08:32;4.10;;;1.60;;
70247;SDS011;57641;51.416;5.506;2023-01-06T01:11:17;6.15;;;1.50;;
70247;SDS011;57641;51.416;5.506;2023-01-06T01:14:01;2.97;;;1.33;;
70247;SDS011;57641;51.416;5.506;2023-01-06T01:16:27;5.18;;;1.33;;
70247;SDS011;57641;51.416;5.506;2023-01-06T01:18:53;5.18;;;1.38;;
70247;SDS011;57641;51.416;5.506;2023-01-06T01:21:18;2.65;;;1.42;;
70247;SDS011;57641;51.416;5.506;2023-01-06T01:23:45;3.10;;;1.20;;
70247;SDS011;57641;51.416;5.506;2023-01-06T01:26:10;4.00;;;1.20;;
70247;SDS011;57641;51.416;5.506;2023-01-06T01:28:36;2.83;;;1.30;;
70247;SDS011;57641;51.416;5.506;2023-01-06T01:31:02;5.18;;;1.33;;
70247;SDS011;57641;51.416;5.506;2023-01-06T01:33:30;4.20;;;1.38;;
70247;SDS011;57641;51.416;5.506;2023-01-06T01:36:03;2.83;;;0.90;;
70247;SDS011;57641;51.416;5.506;2023-01-06T01:38:31;4.22;;;1.15;;
70247;SDS011;57641;51.416;5.506;2023-01-06T01:40:56;3.10;;;1.20;;
70247;SDS011;57641;51.416;5.506;2023-01-06T01:43:25;5.75;;;1.33;;
70247;SDS011;57641;51.416;5.506;2023-01-06T01:46:06;2.58;;;1.38;;
70247;SDS011;57641;51.416;5.506;2023-01-06T01:48:35;3.38;;;1.70;;
70247;SDS011;57641;51.416;5.506;2023-01-06T01:51:04;2.75;;;1.10;;
70247;SDS011;57641;51.416;5.506;2023-01-06T01:53:43;3.17;;;1.20;;
70247;SDS011;57641;51.416;5.506;2023-01-06T01:56:15;3.03;;;1.05;;
70247;SDS011;57641;51.416;5.506;2023-01-06T01:58:47;3.95;;;1.80;;
70247;SDS011;57641;51.416;5.506;2023-01-06T02:01:24;6.47;;;1.38;;
70247;SDS011;57641;51.416;5.506;2023-01-06T02:03:50;3.20;;;1.08;;
70247;SDS011;57641;51.416;5.506;2023-01-06T02:06:19;4.63;;;1.35;;
70247;SDS011;57641;51.416;5.506;2023-01-06T02:11:46;3.05;;;1.50;;
70247;SDS011;57641;51.416;5.506;2023-01-06T02:14:17;6.50;;;1.75;;
70247;SDS011;57641;51.416;5.506;2023-01-06T02:39:25;2.63;;;0.80;;
70247;SDS011;57641;51.416;5.506;2023-01-06T03:00:30;5.97;;;1.10;;
70247;SDS011;57641;51.416;5.506;2023-01-06T03:03:05;2.45;;;1.25;;
70247;SDS011;57641;51.416;5.506;2023-01-06T03:05:38;3.17;;;1.10;;
70247;SDS011;57641;51.416;5.506;2023-01-06T03:08:08;2.33;;;0.70;;
70247;SDS011;57641;51.416;5.506;2023-01-06T03:10:39;2.60;;;0.75;;
70247;SDS011;57641;51.416;5.506;2023-01-06T03:13:09;5.82;;;1.75;;
70247;SDS011;57641;51.416;5.506;2023-01-06T03:15:39;3.05;;;1.08;;
70247;SDS011;57641;51.416;5.506;2023-01-06T03:18:08;4.30;;;1.38;;
70247;SDS011;57641;51.416;5.506;2023-01-06T03:20:35;3.67;;;1.08;;
70247;SDS011;57641;51.416;5.506;2023-01-06T03:23:00;4.85;;;1.20;;
70247;SDS011;57641;51.416;5.506;2023-01-06T03:25:26;1.60;;;0.98;;
70247;SDS011;57641;51.416;5.506;2023-01-06T03:27:52;3.75;;;1.02;;
70247;SDS011;57641;51.416;5.506;2023-01-06T03:30:17;1.50;;;0.88;;
70247;SDS011;57641;51.416;5.506;2023-01-06T03:38:13;3.03;;;1.00;;
70247;SDS011;57641;51.416;5.506;2023-01-06T03:41:17;2.17;;;0.90;;
70247;SDS011;57641;51.416;5.506;2023-01-06T03:44:14;5.30;;;1.10;;
70247;SDS011;57641;51.416;5.506;2023-01-06T03:46:48;4.88;;;1.10;;
70247;SDS011;57641;51.416;5.506;2023-01-06T03:49:21;4.10;;;1.20;;
70247;SDS011;57641;51.416;5.506;2023-01-06T03:52:11;3.63;;;1.03;;
70247;SDS011;57641;51.416;5.506;2023-01-06T03:54:56;6.25;;;1.63;;
70247;SDS011;57641;51.416;5.506;2023-01-06T03:57:32;2.08;;;1.05;;
70247;SDS011;57641;51.416;5.506;2023-01-06T04:00:05;3.28;;;0.85;;
70247;SDS011;57641;51.416;5.506;2023-01-06T04:02:33;3.95;;;1.00;;
70247;SDS011;57641;51.416;5.506;2023-01-06T04:07:44;3.60;;;1.20;;
70247;SDS011;57641;51.416;5.506;2023-01-06T04:10:11;4.07;;;1.17;;
70247;SDS011;57641;51.416;5.506;2023-01-06T04:12:39;1.75;;;1.17;;
70247;SDS011;57641;51.416;5.506;2023-01-06T04:17:32;3.95;;;0.77;;
70247;SDS011;57641;51.416;5.506;2023-01-06T04:19:58;2.88;;;0.82;;
70247;SDS011;57641;51.416;5.506;2023-01-06T04:22:24;4.47;;;1.00;;
70247;SDS011;57641;51.416;5.506;2023-01-06T04:24:50;3.13;;;1.17;;
70247;SDS011;57641;51.416;5.506;2023-01-06T04:27:15;3.38;;;1.60;;
70247;SDS011;57641;51.416;5.506;2023-01-06T04:29:41;2.00;;;1.00;;
70247;SDS011;57641;51.416;5.506;2023-01-06T04:32:07;2.13;;;0.70;;
70247;SDS011;57641;51.416;5.506;2023-01-06T04:34:33;2.00;;;1.10;;
70247;SDS011;57641;51.416;5.506;2023-01-06T04:36:59;1.95;;;0.80;;
70247;SDS011;57641;51.416;5.506;2023-01-06T04:39:24;2.28;;;0.95;;
70247;SDS011;57641;51.416;5.506;2023-01-06T04:41:50;1.67;;;0.80;;
70247;SDS011;57641;51.416;5.506;2023-01-06T04:44:16;2.05;;;0.75;;
70247;SDS011;57641;51.416;5.506;2023-01-06T04:46:42;2.03;;;0.88;;
70247;SDS011;57641;51.416;5.506;2023-01-06T04:49:07;2.20;;;0.70;;
70247;SDS011;57641;51.416;5.506;2023-01-06T04:51:33;2.35;;;0.98;;
70247;SDS011;57641;51.416;5.506;2023-01-06T04:53:59;1.67;;;0.75;;
70247;SDS011;57641;51.416;5.506;2023-01-06T04:56:25;1.60;;;0.70;;
70247;SDS011;57641;51.416;5.506;2023-01-06T04:58:54;3.13;;;0.98;;
70247;SDS011;57641;51.416;5.506;2023-01-06T05:01:24;0.98;;;0.68;;
70247;SDS011;57641;51.416;5.506;2023-01-06T05:03:51;2.88;;;0.77;;
70247;SDS011;57641;51.416;5.506;2023-01-06T05:06:17;1.55;;;0.70;;
70247;SDS011;57641;51.416;5.506;2023-01-06T05:08:44;1.33;;;0.60;;
70247;SDS011;57641;51.416;5.506;2023-01-06T05:11:12;2.08;;;1.00;;
70247;SDS011;57641;51.416;5.506;2023-01-06T05:13:40;2.58;;;0.90;;
70247;SDS011;57641;51.416;5.506;2023-01-06T05:16:07;2.10;;;0.80;;
70247;SDS011;57641;51.416;5.506;2023-01-06T05:18:34;3.50;;;1.13;;
70247;SDS011;57641;51.416;5.506;2023-01-06T05:21:00;2.28;;;0.80;;
70247;SDS011;57641;51.416;5.506;2023-01-06T05:23:26;1.90;;;0.80;;
70247;SDS011;57641;51.416;5.506;2023-01-06T05:25:52;4.15;;;1.60;;
70247;SDS011;57641;51.416;5.506;2023-01-06T05:28:21;2.00;;;0.90;;
70247;SDS011;57641;51.416;5.506;2023-01-06T05:30:48;2.58;;;0.90;;
70247;SDS011;57641;51.416;5.506;2023-01-06T05:33:14;1.98;;;0.82;;
70247;SDS011;57641;51.416;5.506;2023-01-06T05:35:40;1.83;;;0.82;;
70247;SDS011;57641;51.416;5.506;2023-01-06T05:38:06;2.90;;;1.10;;
70247;SDS011;57641;51.416;5.506;2023-01-06T05:40:33;3.03;;;1.00;;
70247;SDS011;57641;51.416;5.506;2023-01-06T05:43:00;3.42;;;0.90;;
70247;SDS011;57641;51.416;5.506;2023-01-06T05:45:26;4.15;;;1.30;;
70247;SDS011;57641;51.416;5.506;2023-01-06T05:47:51;3.03;;;0.90;;
70247;SDS011;57641;51.416;5.506;2023-01-06T05:50:20;3.83;;;0.90;;
70247;SDS011;57641;51.416;5.506;2023-01-06T05:52:46;3.05;;;0.60;;
70247;SDS011;57641;51.416;5.506;2023-01-06T05:55:14;1.70;;;0.90;;
70247;SDS011;57641;51.416;5.506;2023-01-06T05:57:40;2.00;;;0.95;;
70247;SDS011;57641;51.416;5.506;2023-01-06T06:00:06;1.00;;;0.85;;
70247;SDS011;57641;51.416;5.506;2023-01-06T06:02:33;1.00;;;0.80;;
70247;SDS011;57641;51.416;5.506;2023-01-06T06:04:58;2.60;;;1.10;;
70247;SDS011;57641;51.416;5.506;2023-01-06T06:07:24;1.05;;;0.82;;
70247;SDS011;57641;51.416;5.506;2023-01-06T06:09:50;1.90;;;0.90;;
70247;SDS011;57641;51.416;5.506;2023-01-06T06:12:16;1.50;;;1.00;;
70247;SDS011;57641;51.416;5.506;2023-01-06T06:14:41;2.10;;;1.00;;
70247;SDS011;57641;51.416;5.506;2023-01-06T06:17:07;1.63;;;0.95;;
70247;SDS011;57641;51.416;5.506;2023-01-06T06:19:35;1.33;;;1.00;;
70247;SDS011;57641;51.416;5.506;2023-01-06T06:22:04;2.35;;;1.10;;
70247;SDS011;57641;51.416;5.506;2023-01-06T06:24:30;1.98;;;0.90;;
70247;SDS011;57641;51.416;5.506;2023-01-06T06:26:55;1.20;;;1.00;;
70247;SDS011;57641;51.416;5.506;2023-01-06T06:29:24;2.00;;;0.88;;
70247;SDS011;57641;51.416;5.506;2023-01-06T06:31:49;1.15;;;0.80;;
70247;SDS011;57641;51.416;5.506;2023-01-06T06:34:14;3.70;;;1.00;;
70247;SDS011;57641;51.416;5.506;2023-01-06T06:36:41;2.50;;;1.10;;
70247;SDS011;57641;51.416;5.506;2023-01-06T06:39:07;3.47;;;1.00;;
70247;SDS011;57641;51.416;5.506;2023-01-06T06:41:35;2.90;;;0.93;;
70247;SDS011;57641;51.416;5.506;2023-01-06T06:44:01;2.70;;;1.00;;
70247;SDS011;57641;51.416;5.506;2023-01-06T06:46:28;2.58;;;0.90;;
70247;SDS011;57641;51.416;5.506;2023-01-06T06:48:54;2.35;;;1.13;;
70247;SDS011;57641;51.416;5.506;2023-01-06T06:51:21;2.08;;;0.90;;
70247;SDS011;57641;51.416;5.506;2023-01-06T06:53:47;1.10;;;0.90;;
70247;SDS011;57641;51.416;5.506;2023-01-06T06:56:15;3.20;;;1.05;;
70247;SDS011;57641;51.416;5.506;2023-01-06T06:58:42;2.20;;;1.17;;
70247;SDS011;57641;51.416;5.506;2023-01-06T07:01:10;3.92;;;1.58;;
70247;SDS011;57641;51.416;5.506;2023-01-06T07:03:38;2.55;;;1.02;;
70247;SDS011;57641;51.416;5.506;2023-01-06T07:06:08;3.38;;;1.20;;
70247;SDS011;57641;51.416;5.506;2023-01-06T07:08:36;2.15;;;1.25;;
70247;SDS011;57641;51.416;5.506;2023-01-06T07:11:02;2.08;;;1.17;;
70247;SDS011;57641;51.416;5.506;2023-01-06T07:13:31;5.35;;;1.30;;
70247;SDS011;57641;51.416;5.506;2023-01-06T07:15:57;1.70;;;0.90;;
70247;SDS011;57641;51.416;5.506;2023-01-06T07:18:22;4.70;;;1.50;;
70247;SDS011;57641;51.416;5.506;2023-01-06T07:20:48;1.77;;;1.13;;
70247;SDS011;57641;51.416;5.506;2023-01-06T07:23:18;3.33;;;1.20;;
70247;SDS011;57641;51.416;5.506;2023-01-06T07:25:44;1.70;;;1.30;;
70247;SDS011;57641;51.416;5.506;2023-01-06T07:28:09;3.03;;;1.10;;
70247;SDS011;57641;51.416;5.506;2023-01-06T07:30:35;2.63;;;1.10;;
70247;SDS011;57641;51.416;5.506;2023-01-06T07:33:02;1.60;;;1.10;;
70247;SDS011;57641;51.416;5.506;2023-01-06T07:35:28;1.13;;;0.93;;
70247;SDS011;57641;51.416;5.506;2023-01-06T07:38:00;1.90;;;1.15;;
70247;SDS011;57641;51.416;5.506;2023-01-06T07:40:30;1.52;;;1.20;;
70247;SDS011;57641;51.416;5.506;2023-01-06T07:42:56;4.25;;;1.20;;
70247;SDS011;57641;51.416;5.506;2023-01-06T07:45:25;3.00;;;1.25;;
70247;SDS011;57641;51.416;5.506;2023-01-06T07:47:50;1.15;;;1.05;;
70247;SDS011;57641;51.416;5.506;2023-01-06T07:50:19;1.10;;;1.00;;
70247;SDS011;57641;51.416;5.506;2023-01-06T07:52:45;1.95;;;1.00;;
70247;SDS011;57641;51.416;5.506;2023-01-06T07:55:11;1.50;;;1.10;;
70247;SDS011;57641;51.416;5.506;2023-01-06T07:57:36;2.58;;;1.15;;
70247;SDS011;57641;51.416;5.506;2023-01-06T08:00:02;1.15;;;1.05;;
70247;SDS011;57641;51.416;5.506;2023-01-06T08:02:28;2.13;;;1.20;;
70247;SDS011;57641;51.416;5.506;2023-01-06T08:04:54;2.45;;;1.40;;
70247;SDS011;57641;51.416;5.506;2023-01-06T08:07:20;2.80;;;1.20;;
70247;SDS011;57641;51.416;5.506;2023-01-06T08:09:51;3.83;;;1.73;;
70247;SDS011;57641;51.416;5.506;2023-01-06T08:12:17;2.17;;;1.33;;
70247;SDS011;57641;51.416;5.506;2023-01-06T08:14:43;1.83;;;1.23;;
70247;SDS011;57641;51.416;5.506;2023-01-06T08:17:09;1.73;;;1.20;;
70247;SDS011;57641;51.416;5.506;2023-01-06T08:19:34;4.03;;;1.65;;
70247;SDS011;57641;51.416;5.506;2023-01-06T08:22:00;2.55;;;1.35;;
70247;SDS011;57641;51.416;5.506;2023-01-06T08:24:26;2.17;;;1.20;;
70247;SDS011;57641;51.416;5.506;2023-01-06T08:26:55;2.17;;;1.63;;
70247;SDS011;57641;51.416;5.506;2023-01-06T08:29:23;2.70;;;1.60;;
70247;SDS011;57641;51.416;5.506;2023-01-06T08:31:50;2.08;;;1.30;;
70247;SDS011;57641;51.416;5.506;2023-01-06T08:34:19;1.42;;;1.20;;
70247;SDS011;57641;51.416;5.506;2023-01-06T08:36:45;2.53;;;1.40;;
70247;SDS011;57641;51.416;5.506;2023-01-06T08:39:13;2.28;;;1.50;;
70247;SDS011;57641;51.416;5.506;2023-01-06T08:41:40;1.92;;;1.25;;
70247;SDS011;57641;51.416;5.506;2023-01-06T08:44:06;1.40;;;1.30;;
70247;SDS011;57641;51.416;5.506;2023-01-06T08:46:32;1.88;;;1.30;;
70247;SDS011;57641;51.416;5.506;2023-01-06T08:48:59;1.67;;;1.58;;
70247;SDS011;57641;51.416;5.506;2023-01-06T08:51:27;4.07;;;1.40;;
70247;SDS011;57641;51.416;5.506;2023-01-06T08:53:53;1.55;;;1.38;;
70247;SDS011;57641;51.416;5.506;2023-01-06T08:56:23;2.88;;;1.80;;
70247;SDS011;57641;51.416;5.506;2023-01-06T08:58:52;4.90;;;1.70;;
70247;SDS011;57641;51.416;5.506;2023-01-06T09:01:24;2.33;;;1.40;;
70247;SDS011;57641;51.416;5.506;2023-01-06T09:03:53;2.63;;;1.40;;
70247;SDS011;57641;51.416;5.506;2023-01-06T09:06:21;2.65;;;1.45;;
70247;SDS011;57641;51.416;5.506;2023-01-06T09:08:47;2.30;;;1.45;;
70247;SDS011;57641;51.416;5.506;2023-01-06T09:11:13;2.38;;;1.58;;
70247;SDS011;57641;51.416;5.506;2023-01-06T09:13:41;2.20;;;1.30;;
70247;SDS011;57641;51.416;5.506;2023-01-06T09:16:07;1.80;;;1.20;;
70247;SDS011;57641;51.416;5.506;2023-01-06T09:18:34;1.40;;;1.30;;
70247;SDS011;57641;51.416;5.506;2023-01-06T09:21:01;1.65;;;1.40;;
70247;SDS011;57641;51.416;5.506;2023-01-06T09:23:34;2.85;;;2.00;;
70247;SDS011;57641;51.416;5.506;2023-01-06T09:25:59;2.40;;;1.40;;
70247;SDS011;57641;51.416;5.506;2023-01-06T09:28:26;1.98;;;1.40;;
70247;SDS011;57641;51.416;5.506;2023-01-06T09:30:51;2.03;;;1.75;;
70247;SDS011;57641;51.416;5.506;2023-01-06T09:33:17;1.63;;;1.52;;
70247;SDS011;57641;51.416;5.506;2023-01-06T09:35:46;3.97;;;2.05;;
70247;SDS011;57641;51.416;5.506;2023-01-06T09:38:12;2.28;;;1.80;;
70247;SDS011;57641;51.416;5.506;2023-01-06T09:40:50;2.30;;;1.60;;
70247;SDS011;57641;51.416;5.506;2023-01-06T09:46:00;1.98;;;1.60;;
70247;SDS011;57641;51.416;5.506;2023-01-06T09:48:34;1.70;;;1.60;;
70247;SDS011;57641;51.416;5.506;2023-01-06T09:51:11;2.00;;;1.40;;
70247;SDS011;57641;51.416;5.506;2023-01-06T09:53:44;2.95;;;1.65;;
70247;SDS011;57641;51.416;5.506;2023-01-06T09:56:16;2.70;;;1.50;;
70247;SDS011;57641;51.416;5.506;2023-01-06T09:58:51;2.47;;;1.70;;
70247;SDS011;57641;51.416;5.506;2023-01-06T10:01:37;2.42;;;1.40;;
70247;SDS011;57641;51.416;5.506;2023-01-06T10:04:05;1.85;;;1.48;;
70247;SDS011;57641;51.416;5.506;2023-01-06T10:06:39;1.75;;;1.50;;
70247;SDS011;57641;51.416;5.506;2023-01-06T10:22:32;1.95;;;1.75;;
70247;SDS011;57641;51.416;5.506;2023-01-06T10:30:28;2.20;;;1.80;;
70247;SDS011;57641;51.416;5.506;2023-01-06T10:33:20;2.33;;;2.08;;
70247;SDS011;57641;51.416;5.506;2023-01-06T10:35:50;6.88;;;2.60;;
70247;SDS011;57641;51.416;5.506;2023-01-06T10:38:17;5.13;;;2.20;;
70247;SDS011;57641;51.416;5.506;2023-01-06T10:40:46;3.95;;;2.38;;
70247;SDS011;57641;51.416;5.506;2023-01-06T10:43:13;5.25;;;2.30;;
70247;SDS011;57641;51.416;5.506;2023-01-06T10:45:53;3.63;;;2.63;;
70247;SDS011;57641;51.416;5.506;2023-01-06T10:48:21;3.70;;;2.60;;
70247;SDS011;57641;51.416;5.506;2023-01-06T10:50:51;3.85;;;2.70;;
70247;SDS011;57641;51.416;5.506;2023-01-06T10:53:17;4.47;;;2.65;;
70247;SDS011;57641;51.416;5.506;2023-01-06T10:55:45;3.55;;;2.65;;
70247;SDS011;57641;51.416;5.506;2023-01-06T11:01:13;5.82;;;2.90;;
70247;SDS011;57641;51.416;5.506;2023-01-06T11:03:40;6.35;;;3.17;;
70247;SDS011;57641;51.416;5.506;2023-01-06T11:08:52;6.65;;;2.85;;
70247;SDS011;57641;51.416;5.506;2023-01-06T11:11:18;6.45;;;3.30;;
70247;SDS011;57641;51.416;5.506;2023-01-06T11:13:52;6.22;;;3.60;;
70247;SDS011;57641;51.416;5.506;2023-01-06T11:16:25;6.65;;;3.33;;
70247;SDS011;57641;51.416;5.506;2023-01-06T11:18:54;5.00;;;3.28;;
70247;SDS011;57641;51.416;5.506;2023-01-06T11:21:26;4.78;;;3.40;;
70247;SDS011;57641;51.416;5.506;2023-01-06T11:29:24;5.90;;;3.00;;
70247;SDS011;57641;51.416;5.506;2023-01-06T11:31:52;4.70;;;2.60;;
70247;SDS011;57641;51.416;5.506;2023-01-06T11:34:20;6.15;;;3.17;;
70247;SDS011;57641;51.416;5.506;2023-01-06T11:36:48;4.35;;;2.53;;
70247;SDS011;57641;51.416;5.506;2023-01-06T11:39:22;4.35;;;2.40;;
70247;SDS011;57641;51.416;5.506;2023-01-06T11:42:16;4.90;;;2.50;;
70247;SDS011;57641;51.416;5.506;2023-01-06T11:44:42;3.90;;;2.20;;
70247;SDS011;57641;51.416;5.506;2023-01-06T11:47:13;7.22;;;2.45;;
70247;SDS011;57641;51.416;5.506;2023-01-06T11:50:02;4.18;;;1.92;;
70247;SDS011;57641;51.416;5.506;2023-01-06T11:52:29;5.72;;;2.10;;
70247;SDS011;57641;51.416;5.506;2023-01-06T11:54:58;3.47;;;2.00;;
70247;SDS011;57641;51.416;5.506;2023-01-06T11:57:43;4.35;;;1.95;;
70247;SDS011;57641;51.416;5.506;2023-01-06T12:06:17;3.13;;;1.70;;
70247;SDS011;57641;51.416;5.506;2023-01-06T12:11:54;4.95;;;1.80;;
70247;SDS011;57641;51.416;5.506;2023-01-06T12:14:23;4.53;;;1.88;;
70247;SDS011;57641;51.416;5.506;2023-01-06T12:16:59;3.60;;;1.60;;
70247;SDS011;57641;51.416;5.506;2023-01-06T12:19:47;5.13;;;1.80;;
70247;SDS011;57641;51.416;5.506;2023-01-06T12:22:23;3.97;;;1.33;;
70247;SDS011;57641;51.416;5.506;2023-01-06T12:25:17;2.47;;;1.20;;
70247;SDS011;57641;51.416;5.506;2023-01-06T12:35:43;4.95;;;1.00;;
70247;SDS011;57641;51.416;5.506;2023-01-06T12:43:45;4.28;;;1.20;;
70247;SDS011;57641;51.416;5.506;2023-01-06T12:46:22;3.83;;;1.50;;
70247;SDS011;57641;51.416;5.506;2023-01-06T12:49:02;5.47;;;1.47;;
70247;SDS011;57641;51.416;5.506;2023-01-06T12:51:45;4.22;;;1.20;;
70247;SDS011;57641;51.416;5.506;2023-01-06T12:54:17;3.13;;;0.98;;
70247;SDS011;57641;51.416;5.506;2023-01-06T12:57:15;3.72;;;1.10;;
70247;SDS011;57641;51.416;5.506;2023-01-06T13:05:22;3.47;;;1.17;;
70247;SDS011;57641;51.416;5.506;2023-01-06T13:16:24;4.35;;;1.65;;
70247;SDS011;57641;51.416;5.506;2023-01-06T13:21:21;3.40;;;1.23;;
70247;SDS011;57641;51.416;5.506;2023-01-06T13:23:59;6.47;;;1.23;;
70247;SDS011;57641;51.416;5.506;2023-01-06T13:32:36;2.28;;;0.93;;
70247;SDS011;57641;51.416;5.506;2023-01-06T13:40:30;4.00;;;1.20;;
70247;SDS011;57641;51.416;5.506;2023-01-06T13:43:15;1.40;;;1.10;;
70247;SDS011;57641;51.416;5.506;2023-01-06T13:45:46;2.53;;;1.00;;
70247;SDS011;57641;51.416;5.506;2023-01-06T13:48:22;1.73;;;0.80;;
70247;SDS011;57641;51.416;5.506;2023-01-06T13:50:51;3.05;;;1.00;;
70247;SDS011;57641;51.416;5.506;2023-01-06T13:53:18;2.58;;;0.90;;
70247;SDS011;57641;51.416;5.506;2023-01-06T13:55:46;1.40;;;0.90;;
70247;SDS011;57641;51.416;5.506;2023-01-06T14:01:06;1.58;;;0.98;;
70247;SDS011;57641;51.416;5.506;2023-01-06T14:03:34;1.48;;;0.95;;
70247;SDS011;57641;51.416;5.506;2023-01-06T14:06:01;1.80;;;0.80;;
70247;SDS011;57641;51.416;5.506;2023-01-06T14:08:39;1.35;;;1.00;;
70247;SDS011;57641;51.416;5.506;2023-01-06T14:11:50;2.88;;;1.10;;
70247;SDS011;57641;51.416;5.506;2023-01-06T14:14:28;1.98;;;1.10;;
70247;SDS011;57641;51.416;5.506;2023-01-06T14:17:06;4.00;;;1.50;;
70247;SDS011;57641;51.416;5.506;2023-01-06T14:19:55;2.42;;;1.20;;
70247;SDS011;57641;51.416;5.506;2023-01-06T14:22:25;1.70;;;1.27;;
70247;SDS011;57641;51.416;5.506;2023-01-06T14:25:00;1.60;;;1.50;;
70247;SDS011;57641;51.416;5.506;2023-01-06T14:30:30;1.77;;;1.25;;
70247;SDS011;57641;51.416;5.506;2023-01-06T14:32:59;1.25;;;1.02;;
70247;SDS011;57641;51.416;5.506;2023-01-06T14:35:46;1.10;;;1.00;;
70247;SDS011;57641;51.416;5.506;2023-01-06T14:38:17;1.20;;;1.10;;
70247;SDS011;57641;51.416;5.506;2023-01-06T14:43:25;0.95;;;0.90;;
70247;SDS011;57641;51.416;5.506;2023-01-06T14:46:15;0.82;;;0.80;;
70247;SDS011;57641;51.416;5.506;2023-01-06T14:48:55;1.13;;;1.02;;
70247;SDS011;57641;51.416;5.506;2023-01-06T14:51:30;2.75;;;0.90;;
70247;SDS011;57641;51.416;5.506;2023-01-06T14:54:00;1.00;;;0.90;;
70247;SDS011;57641;51.416;5.506;2023-01-06T14:57:04;0.90;;;0.82;;
70247;SDS011;57641;51.416;5.506;2023-01-06T14:59:30;0.90;;;0.80;;
70247;SDS011;57641;51.416;5.506;2023-01-06T15:02:01;1.00;;;0.90;;
70247;SDS011;57641;51.416;5.506;2023-01-06T15:04:37;2.63;;;1.15;;
70247;SDS011;57641;51.416;5.506;2023-01-06T15:07:15;1.27;;;1.13;;
70247;SDS011;57641;51.416;5.506;2023-01-06T15:09:45;2.47;;;1.30;;
70247;SDS011;57641;51.416;5.506;2023-01-06T15:12:26;1.58;;;1.23;;
70247;SDS011;57641;51.416;5.506;2023-01-06T15:14:55;3.10;;;1.40;;
70247;SDS011;57641;51.416;5.506;2023-01-06T15:17:22;1.50;;;1.40;;
70247;SDS011;57641;51.416;5.506;2023-01-06T15:19:48;1.70;;;1.30;;
70247;SDS011;57641;51.416;5.506;2023-01-06T15:22:20;1.60;;;1.50;;
70247;SDS011;57641;51.416;5.506;2023-01-06T15:24:49;1.98;;;1.50;;
70247;SDS011;57641;51.416;5.506;2023-01-06T15:27:15;2.13;;;1.60;;
70247;SDS011;57641;51.416;5.506;2023-01-06T15:29:53;2.47;;;1.58;;
70247;SDS011;57641;51.416;5.506;2023-01-06T15:32:20;1.60;;;1.30;;
70247;SDS011;57641;51.416;5.506;2023-01-06T15:34:49;2.05;;;1.63;;
70247;SDS011;57641;51.416;5.506;2023-01-06T15:37:17;1.77;;;1.40;;
70247;SDS011;57641;51.416;5.506;2023-01-06T15:39:51;2.17;;;1.50;;
70247;SDS011;57641;51.416;5.506;2023-01-06T15:42:21;2.05;;;1.50;;
70247;SDS011;57641;51.416;5.506;2023-01-06T15:45:01;2.20;;;1.80;;
70247;SDS011;57641;51.416;5.506;2023-01-06T15:50:22;4.13;;;1.90;;
70247;SDS011;57641;51.416;5.506;2023-01-06T15:52:52;3.17;;;2.17;;
70247;SDS011;57641;51.416;5.506;2023-01-06T15:55:29;2.05;;;1.80;;
70247;SDS011;57641;51.416;5.506;2023-01-06T15:58:28;3.08;;;2.40;;
70247;SDS011;57641;51.416;5.506;2023-01-06T16:01:16;3.05;;;2.40;;
70247;SDS011;57641;51.416;5.506;2023-01-06T16:03:53;4.03;;;2.35;;
70247;SDS011;57641;51.416;5.506;2023-01-06T16:06:25;3.47;;;2.47;;
70247;SDS011;57641;51.416;5.506;2023-01-06T16:14:32;3.25;;;2.88;;
70247;SDS011;57641;51.416;5.506;2023-01-06T16:19:49;5.97;;;2.97;;
70247;SDS011;57641;51.416;5.506;2023-01-06T16:22:26;3.97;;;3.20;;
70247;SDS011;57641;51.416;5.506;2023-01-06T16:24:59;3.40;;;3.10;;
70247;SDS011;57641;51.416;5.506;2023-01-06T16:27:32;4.43;;;2.80;;
70247;SDS011;57641;51.416;5.506;2023-01-06T16:30:13;2.95;;;2.45;;
70247;SDS011;57641;51.416;5.506;2023-01-06T16:32:42;3.95;;;2.72;;
70247;SDS011;57641;51.416;5.506;2023-01-06T16:35:15;3.67;;;2.70;;
70247;SDS011;57641;51.416;5.506;2023-01-06T16:37:42;3.90;;;2.60;;
70247;SDS011;57641;51.416;5.506;2023-01-06T16:40:12;3.42;;;2.92;;
70247;SDS011;57641;51.416;5.506;2023-01-06T16:42:40;4.65;;;2.90;;
70247;SDS011;57641;51.416;5.506;2023-01-06T16:45:27;4.55;;;3.35;;
70247;SDS011;57641;51.416;5.506;2023-01-06T16:48:02;4.38;;;3.22;;
70247;SDS011;57641;51.416;5.506;2023-01-06T16:50:38;6.03;;;3.80;;
70247;SDS011;57641;51.416;5.506;2023-01-06T16:55:34;5.72;;;4.10;;
70247;SDS011;57641;51.416;5.506;2023-01-06T16:58:04;6.38;;;4.70;;
70247;SDS011;57641;51.416;5.506;2023-01-06T17:00:41;9.68;;;5.40;;
70247;SDS011;57641;51.416;5.506;2023-01-06T17:03:19;7.40;;;5.32;;
70247;SDS011;57641;51.416;5.506;2023-01-06T17:05:50;7.15;;;5.30;;
70247;SDS011;57641;51.416;5.506;2023-01-06T17:08:20;6.68;;;4.85;;
70247;SDS011;57641;51.416;5.506;2023-01-06T17:10:50;7.13;;;5.45;;
70247;SDS011;57641;51.416;5.506;2023-01-06T17:13:16;7.40;;;5.05;;
70247;SDS011;57641;51.416;5.506;2023-01-06T17:16:01;5.38;;;4.55;;
70247;SDS011;57641;51.416;5.506;2023-01-06T17:18:30;9.73;;;4.80;;
70247;SDS011;57641;51.416;5.506;2023-01-06T17:21:10;7.28;;;5.15;;
70247;SDS011;57641;51.416;5.506;2023-01-06T17:24:23;6.45;;;4.55;;
70247;SDS011;57641;51.416;5.506;2023-01-06T17:26:51;6.40;;;4.35;;
70247;SDS011;57641;51.416;5.506;2023-01-06T17:29:24;6.97;;;4.05;;
70247;SDS011;57641;51.416;5.506;2023-01-06T17:31:54;5.85;;;4.00;;
70247;SDS011;57641;51.416;5.506;2023-01-06T17:34:22;5.15;;;4.00;;
70247;SDS011;57641;51.416;5.506;2023-01-06T17:36:55;6.97;;;4.15;;
70247;SDS011;57641;51.416;5.506;2023-01-06T17:41:58;5.80;;;4.80;;
70247;SDS011;57641;51.416;5.506;2023-01-06T17:44:33;6.28;;;4.57;;
70247;SDS011;57641;51.416;5.506;2023-01-06T17:49:39;19.42;;;11.40;;
70247;SDS011;57641;51.416;5.506;2023-01-06T17:52:15;11.95;;;9.35;;
70247;SDS011;57641;51.416;5.506;2023-01-06T17:54:56;6.43;;;5.20;;